Time;durP1;ratioP1;P1;durP2;ratioP2;P2;SDS_P1;SDS_P2;PMS_P1;PMS_P2;Temp;Humidity;BMP_temperature;BMP_pressure;BME280_temperature;BME280_humidity;BME280_pressure;Samples;Min_cycle;Max_cycle;Signal;HPM_P1;HPM_P2
2023/03/25 00:04:02;;;;;;;240.45;217.13;;;;;;;22.99;43.38;99379.69;20535079;28;20392;-77
2023/03/25 00:14:04;;;;;;;240.23;217.13;;;;;;;22.97;43.50;99393.03;20526813;28;20043;-77
2023/03/25 00:24:05;;;;;;;265.38;239.75;;;;;;;22.99;43.94;99384.94;20530040;28;20051;-76
2023/03/25 00:34:06;;;;;;;263.48;237.75;;;;;;;22.97;43.74;99395.69;20530888;28;20050;-76
2023/03/25 00:44:06;;;;;;;238.52;215.63;;;;;;;22.94;43.48;99393.34;20529865;28;20054;-75
2023/03/25 00:54:08;;;;;;;249.75;225.63;;;;;;;22.93;43.66;99396.94;20527640;28;20039;-76
2023/03/25 01:04:11;;;;;;;250.57;226.50;;;;;;;22.92;43.48;99403.22;20520187;28;20090;-77
2023/03/25 01:14:19;;;;;;;;;;;;;;;22.91;43.58;99396.28;20531238;28;20125;-76
2023/03/25 01:24:21;;;;;;;270.33;244.07;;;;;;;22.90;43.66;99391.16;20535620;28;19957;-76
2023/03/25 01:34:22;;;;;;;273.53;247.00;;;;;;;22.90;43.71;99410.47;20546869;28;20049;-77
2023/03/25 01:44:23;;;;;;;273.88;247.38;;;;;;;22.89;43.77;99424.66;20537626;28;20050;-76
2023/03/25 01:54:23;;;;;;;262.45;237.00;;;;;;;22.88;43.54;99416.88;20536709;28;20097;-75
2023/03/25 02:04:33;;;;;;;257.73;232.73;;;;;;;22.85;43.73;99436.47;20517756;28;20063;-76
2023/03/25 02:14:36;;;;;;;263.58;238.13;;;;;;;22.87;43.93;99434.53;20536835;28;20136;-76
2023/03/25 02:24:56;;;;;;;;;;;;;;;22.86;44.17;99430.22;20496020;28;20042;-77
2023/03/25 02:35:15;;;;;;;257.52;232.65;;;;;;;22.87;44.12;99431.88;20522582;28;19930;-77
2023/03/25 02:45:34;;;;;;;260.20;234.98;;;;;;;22.85;44.29;99424.13;20536587;28;20516;-76
2023/03/25 02:55:36;;;;;;;261.33;236.15;;;;;;;22.86;44.33;99411.75;20539837;28;20074;-77
2023/03/25 03:05:42;;;;;;;286.30;258.30;;;;;;;22.84;44.76;99427.75;20515107;28;20073;-77
2023/03/25 03:15:43;;;;;;;264.05;238.60;;;;;;;22.85;44.84;99436.47;20534769;28;20050;-76
2023/03/25 03:25:43;;;;;;;267.58;241.82;;;;;;;22.84;44.85;99448.03;20536667;28;20114;-75
2023/03/25 03:35:57;;;;;;;278.38;251.13;;;;;;;22.82;45.28;99442.91;20541799;28;20043;-77
2023/03/25 03:46:05;;;;;;;258.30;233.45;;;;;;;22.82;45.21;99455.28;20551051;28;20070;-77
2023/03/25 03:56:22;;;;;;;250.23;226.25;;;;;;;22.83;44.80;99485.97;20545048;28;20050;-77
2023/03/25 04:06:34;;;;;;;250.68;226.73;;;;;;;22.81;45.47;99485.28;20545998;28;20051;-77
2023/03/25 04:16:36;;;;;;;267.48;241.63;;;;;;;22.80;45.17;99487.09;20558364;28;20137;-78
2023/03/25 04:26:37;;;;;;;287.77;259.98;;;;;;;22.80;45.31;99502.94;20545683;28;20395;-77
2023/03/25 04:36:37;;;;;;;283.63;256.08;;;;;;;22.81;45.62;99517.81;20534875;28;20046;-76
2023/03/25 04:46:38;;;;;;;276.10;249.25;;;;;;;22.79;45.70;99526.81;20533530;28;20442;-77
2023/03/25 04:56:39;;;;;;;285.45;257.77;;;;;;;22.78;45.61;99528.66;20527013;28;20040;-77
2023/03/25 05:06:42;;;;;;;278.40;251.38;;;;;;;22.77;46.02;99542.00;20526568;28;20736;-77
2023/03/25 05:16:43;;;;;;;266.80;241.10;;;;;;;22.79;45.56;99547.94;20514188;28;20042;-77
2023/03/25 05:26:44;;;;;;;284.35;256.75;;;;;;;22.76;45.73;99548.25;20530028;28;20051;-78
2023/03/25 05:36:44;;;;;;;259.42;234.48;;;;;;;22.78;45.74;99551.59;20526408;28;20101;-77
2023/03/25 05:46:47;;;;;;;297.02;268.25;;;;;;;22.78;45.73;99547.13;20521436;28;20070;-77
2023/03/25 05:56:47;;;;;;;264.08;238.63;;;;;;;22.82;46.03;99548.47;20519423;28;20149;-78
2023/03/25 06:06:48;;;;;;;272.25;245.95;;;;;;;22.82;45.86;99558.22;20532865;28;20059;-79
2023/03/25 06:16:50;;;;;;;257.03;232.07;;;;;;;22.82;45.98;99560.84;20523514;28;20071;-78
2023/03/25 06:26:50;;;;;;;277.10;250.18;;;;;;;22.80;45.86;99576.84;20510552;28;20162;-81
2023/03/25 06:36:52;;;;;;;264.17;238.60;;;;;;;22.79;46.04;99572.53;20505393;28;20063;-80
2023/03/25 06:46:53;;;;;;;262.95;237.55;;;;;;;22.79;45.93;99582.25;20531630;28;20051;-81
2023/03/25 06:56:54;;;;;;;286.40;258.60;;;;;;;22.81;45.87;99590.84;20535448;28;20043;-80
2023/03/25 07:06:54;;;;;;;258.80;233.65;;;;;;;22.81;46.50;99594.34;20540026;28;20287;-79
2023/03/25 07:16:55;;;;;;;256.02;231.30;;;;;;;22.83;46.12;99600.28;20554269;28;20050;-77
2023/03/25 07:26:55;;;;;;;256.48;231.80;;;;;;;22.85;46.43;99605.41;20552880;28;20051;-76
2023/03/25 07:36:56;;;;;;;263.83;237.82;;;;;;;22.90;47.37;99613.72;20539432;28;20047;-77
2023/03/25 07:46:58;;;;;;;284.77;257.20;;;;;;;22.68;45.58;99626.34;20532143;28;20045;-77
2023/03/25 07:56:59;;;;;;;;;;;;;;;22.84;46.37;99616.97;20521248;28;20051;-75
2023/03/25 08:06:59;;;;;;;280.67;253.40;;;;;;;22.91;46.39;99615.41;20521062;28;19937;-74
2023/03/25 08:17:00;;;;;;;269.67;243.38;;;;;;;22.95;47.00;99608.81;20525332;28;20106;-75
2023/03/25 08:27:00;;;;;;;268.45;242.00;;;;;;;22.99;47.65;99610.19;20503033;28;20104;-74
2023/03/25 08:37:01;;;;;;;263.50;237.43;;;;;;;23.02;47.92;99598.47;20522352;28;20071;-73
2023/03/25 08:47:01;;;;;;;280.75;253.13;;;;;;;23.05;47.22;99589.47;20526282;28;20489;-76
2023/03/25 08:57:02;;;;;;;263.58;237.55;;;;;;;23.05;47.76;99582.34;20533977;28;20053;-78
2023/03/25 09:07:02;;;;;;;277.55;250.50;;;;;;;22.91;44.13;99589.00;20521521;28;20055;-78
2023/03/25 09:17:04;;;;;;;282.30;254.60;;;;;;;22.88;41.59;99585.81;20522268;28;20061;-76
2023/03/25 09:27:07;;;;;;;;;;;;;;;22.93;42.46;99584.38;20547913;28;20038;-76
2023/03/25 09:37:07;;;;;;;256.05;231.38;;;;;;;23.00;43.44;99576.72;20519788;28;19922;-78
2023/03/25 09:47:11;;;;;;;255.98;230.80;;;;;;;23.04;43.53;99585.97;20517726;28;20645;-80
2023/03/25 09:57:16;;;;;;;250.82;226.40;;;;;;;23.07;44.42;99587.47;20520119;28;20053;-75
2023/03/25 10:08:08;;;;;;;267.33;241.23;;;;;;;23.15;44.94;99592.84;20524497;28;20063;-81
2023/03/25 10:18:46;;;;;;;269.77;243.32;;;;;;;23.18;44.95;99600.50;20513139;28;20494;-75
2023/03/25 10:28:52;;;;;;;285.80;257.58;;;;;;;23.22;44.05;99593.09;20545688;28;20058;-76
2023/03/25 10:38:54;;;;;;;268.95;242.57;;;;;;;23.20;43.53;99577.41;20556637;28;20075;-77
2023/03/25 10:48:54;;;;;;;257.42;232.25;;;;;;;23.22;44.27;99593.09;20558818;28;20103;-74
2023/03/25 10:58:56;;;;;;;262.85;237.18;;;;;;;23.24;44.36;99578.78;20557734;28;20059;-75
2023/03/25 11:09:04;;;;;;;;;;;;;;;23.24;43.67;99575.28;20554189;28;20145;-76
2023/03/25 11:19:12;;;;;;;255.82;230.65;;;;;;;23.24;44.38;99581.41;20551519;28;20337;-77
2023/03/25 11:29:17;;;;;;;280.40;252.88;;;;;;;23.23;44.10;99589.47;20530595;28;20054;-76
2023/03/25 11:39:35;;;;;;;252.68;228.02;;;;;;;23.21;43.46;99584.34;20524864;28;20046;-73
2023/03/25 11:49:38;;;;;;;262.58;236.93;;;;;;;23.20;43.07;99572.13;20530683;28;20046;-76
2023/03/25 11:59:43;;;;;;;265.60;239.48;;;;;;;23.25;43.87;99577.75;20503018;28;20035;-77
2023/03/25 12:09:54;;;;;;;287.92;259.40;;;;;;;23.33;44.55;99591.06;20526619;28;20076;-77
2023/03/25 12:20:22;;;;;;;273.35;246.25;;;;;;;23.38;45.09;99589.78;20516608;28;20074;-78
2023/03/25 12:30:42;;;;;;;280.33;252.48;;;;;;;23.38;45.78;99574.75;20528852;28;20109;-77
2023/03/25 12:40:53;;;;;;;263.55;237.27;;;;;;;23.38;45.77;99566.00;20522417;28;20043;-81
2023/03/25 12:51:23;;;;;;;254.07;228.63;;;;;;;23.41;45.48;99555.13;20549275;28;20539;-81
2023/03/25 13:01:56;;;;;;;279.77;251.85;;;;;;;23.49;45.76;99539.31;20523295;28;20538;-80
2023/03/25 13:12:09;;;;;;;302.45;272.10;;;;;;;23.48;45.79;99537.66;20502860;28;21860;-80
2023/03/25 13:22:22;;;;;;;305.23;274.48;;;;;;;23.49;45.66;99541.97;20534991;28;20065;-78
2023/03/25 13:32:33;;;;;;;283.50;254.88;;;;;;;23.52;45.51;99538.19;20525528;28;20051;-80
2023/03/25 13:42:50;;;;;;;290.08;259.88;;;;;;;23.54;45.43;99533.59;20514778;28;20082;-78
2023/03/25 13:52:59;;;;;;;262.02;235.95;;;;;;;23.55;45.65;99538.72;20520821;28;20947;-79
2023/03/25 14:03:17;;;;;;;182.13;164.25;;;;;;;23.58;43.95;99541.06;20517477;28;20079;-78
2023/03/25 14:13:32;;;;;;;163.68;148.05;;;;;;;23.56;45.41;99550.09;20527541;28;20042;-78
2023/03/25 14:23:33;;;;;;;160.40;145.45;;;;;;;23.52;43.72;99549.56;20528821;28;20189;-79
2023/03/25 14:33:59;;;;;;;154.27;140.00;;;;;;;23.51;44.23;99532.09;20530203;28;20134;-79
2023/03/25 14:44:17;;;;;;;156.27;141.68;;;;;;;23.46;43.66;99529.91;20541010;28;20084;-79
2023/03/25 14:54:33;;;;;;;155.55;141.25;;;;;;;23.44;43.75;99538.97;20528658;28;20038;-79
2023/03/25 15:04:37;;;;;;;154.57;140.68;;;;;;;23.41;43.71;99540.09;20528236;28;20039;-79
2023/03/25 15:14:41;;;;;;;166.48;151.13;;;;;;;23.36;43.77;99537.06;20532356;28;20491;-79
2023/03/25 15:24:46;;;;;;;166.75;151.23;;;;;;;23.33;43.80;99548.78;20547728;28;20050;-78
2023/03/25 15:35:08;;;;;;;146.27;133.20;;;;;;;23.34;44.09;99547.00;20554376;28;20043;-79
2023/03/25 15:45:43;;;;;;;155.35;141.43;;;;;;;23.51;43.50;99545.28;20550133;28;20051;-77
2023/03/25 15:56:15;;;;;;;149.48;136.20;;;;;;;23.57;43.55;99533.25;20554365;28;20054;-78
2023/03/25 16:06:18;;;;;;;140.65;128.55;;;;;;;23.70;43.40;99530.22;20542985;28;20179;-79
2023/03/25 16:16:20;;;;;;;147.00;133.80;;;;;;;23.89;43.46;99529.97;20535715;28;20034;-79
2023/03/25 16:26:43;;;;;;;155.23;141.43;;;;;;;23.82;43.11;99534.25;20545050;28;20054;-79
2023/03/25 16:36:47;;;;;;;146.95;134.10;;;;;;;23.78;42.82;99539.00;20547646;28;20042;-78
2023/03/25 16:46:50;;;;;;;152.05;138.45;;;;;;;23.72;42.24;99536.19;20538111;28;20062;-80
2023/03/25 16:56:51;;;;;;;134.68;123.20;;;;;;;23.59;42.08;99563.00;20550520;28;20051;-79
2023/03/25 17:06:58;;;;;;;131.23;120.07;;;;;;;23.46;42.37;99553.69;20542752;28;20969;-79
2023/03/25 17:17:08;;;;;;;142.95;130.80;;;;;;;23.38;42.87;99553.63;20531532;28;20062;-79
2023/03/25 17:27:23;;;;;;;157.98;143.93;;;;;;;23.32;43.28;99562.16;20542587;28;20043;-78
2023/03/25 17:37:25;;;;;;;150.52;137.35;;;;;;;23.26;43.06;99574.16;20542896;28;20046;-79
2023/03/25 17:47:26;;;;;;;150.87;137.77;;;;;;;23.24;43.26;99575.28;20519126;28;20053;-78
2023/03/25 17:57:27;;;;;;;140.82;128.88;;;;;;;23.20;43.39;99584.50;20539728;28;20293;-78
2023/03/25 18:07:28;;;;;;;138.75;126.90;;;;;;;23.16;43.43;99594.50;20514383;28;20047;-78
2023/03/25 18:17:29;;;;;;;149.10;136.20;;;;;;;23.09;43.62;99602.19;20532372;28;20058;-78
2023/03/25 18:27:32;;;;;;;160.20;145.80;;;;;;;23.07;43.52;99611.25;20525832;28;20050;-78
2023/03/25 18:37:33;;;;;;;159.70;145.55;;;;;;;23.01;43.76;99629.34;20542519;28;20052;-78
2023/03/25 18:47:34;;;;;;;171.27;155.68;;;;;;;22.97;43.45;99629.78;20538393;28;20077;-79
2023/03/25 18:57:35;;;;;;;211.27;191.13;;;;;;;22.98;43.68;99648.13;20536658;28;20523;-79
2023/03/25 19:07:37;;;;;;;203.25;183.68;;;;;;;23.01;43.59;99653.13;20520321;28;20129;-73
2023/03/25 19:17:40;;;;;;;212.80;192.07;;;;;;;23.02;43.59;99660.06;20529807;28;20158;-74
2023/03/25 19:27:41;;;;;;;194.13;175.82;;;;;;;23.03;43.93;99668.81;20526992;28;20498;-76
2023/03/25 19:37:49;;;;;;;216.00;195.23;;;;;;;23.01;44.05;99681.34;20531901;28;20047;-77
2023/03/25 19:47:51;;;;;;;200.73;181.68;;;;;;;23.01;44.45;99695.38;20539087;28;20044;-75
2023/03/25 19:57:53;;;;;;;204.90;185.50;;;;;;;23.00;44.52;99698.97;20535190;28;20046;-76
2023/03/25 20:07:55;;;;;;;230.43;208.47;;;;;;;22.98;44.69;99700.91;20525202;28;20055;-77
2023/03/25 20:17:56;;;;;;;207.90;188.10;;;;;;;22.96;43.66;99710.81;20529873;28;20053;-74
2023/03/25 20:27:57;;;;;;;241.00;217.65;;;;;;;22.92;43.44;99698.06;20509501;28;20122;-74
2023/03/25 20:37:58;;;;;;;217.35;196.68;;;;;;;22.91;43.71;99720.16;20509594;28;20384;-76
2023/03/25 20:47:59;;;;;;;225.95;204.18;;;;;;;22.89;44.13;99727.38;20516901;28;20925;-76
2023/03/25 20:58:00;;;;;;;232.73;210.27;;;;;;;22.89;44.54;99732.66;20510704;28;20177;-77
2023/03/25 21:08:02;;;;;;;222.63;201.38;;;;;;;22.89;44.87;99727.38;20529195;28;20068;-76
2023/03/25 21:18:02;;;;;;;230.30;208.27;;;;;;;22.85;45.02;99717.13;20520463;28;20051;-76
2023/03/25 21:28:03;;;;;;;240.52;217.40;;;;;;;22.85;45.35;99740.03;20528670;28;20061;-76
2023/03/25 21:38:07;;;;;;;233.05;210.77;;;;;;;22.83;45.22;99742.00;20512907;28;20079;-77
2023/03/25 21:48:07;;;;;;;255.00;230.23;;;;;;;22.84;45.35;99755.06;20519156;28;20058;-76
2023/03/25 21:58:09;;;;;;;336.17;302.88;;;;;;;22.84;45.38;99755.06;20517295;28;20039;-76
2023/03/25 22:08:09;;;;;;;385.07;347.10;;;;;;;22.84;45.76;99760.31;20519761;28;20407;-75
2023/03/25 22:18:10;;;;;;;389.77;351.25;;;;;;;22.84;45.85;99770.88;20513274;28;20065;-73
2023/03/25 22:28:12;;;;;;;370.80;334.55;;;;;;;22.82;45.62;99778.09;20511379;28;20395;-74
2023/03/25 22:38:13;;;;;;;298.05;268.92;;;;;;;22.84;45.78;99775.34;20513085;28;20047;-75
2023/03/25 22:48:14;;;;;;;312.13;281.50;;;;;;;22.83;45.74;99771.84;20508754;28;20051;-74
2023/03/25 22:58:14;;;;;;;285.02;257.15;;;;;;;22.81;46.18;99767.72;20508853;28;20043;-74
2023/03/25 23:08:15;;;;;;;302.15;272.45;;;;;;;22.78;46.06;99766.19;20500516;28;20051;-74
2023/03/25 23:18:25;;;;;;;303.58;273.75;;;;;;;22.78;46.41;99781.22;20513958;28;20046;-75
2023/03/25 23:28:28;;;;;;;330.27;297.80;;;;;;;22.78;46.02;99795.22;20502177;28;20090;-76
2023/03/25 23:38:30;;;;;;;320.17;288.90;;;;;;;22.78;45.93;99794.41;20498007;28;20134;-76
2023/03/25 23:48:31;;;;;;;338.50;305.42;;;;;;;22.77;46.03;99805.94;20533953;28;20043;-77
2023/03/25 23:58:33;;;;;;;346.77;312.88;;;;;;;22.76;46.41;99796.34;20527565;28;20046;-76
